sensor_id;sensor_type;location;lat;lon;timestamp;pressure;altitude;pressure_sealevel;temperature
70664;BMP280;58237;57.996;56.290;2022-07-10T00:00:36;99708.31;;;19.89
70664;BMP280;58237;57.996;56.290;2022-07-10T00:03:02;99712.50;;;19.90
70664;BMP280;58237;57.996;56.290;2022-07-10T00:05:29;99710.94;;;19.89
70664;BMP280;58237;57.996;56.290;2022-07-10T00:07:55;99707.91;;;19.87
70664;BMP280;58237;57.996;56.290;2022-07-10T00:10:21;99708.75;;;19.91
70664;BMP280;58237;57.996;56.290;2022-07-10T00:12:48;99707.97;;;19.90
70664;BMP280;58237;57.996;56.290;2022-07-10T00:15:15;99708.41;;;19.92
70664;BMP280;58237;57.996;56.290;2022-07-10T00:17:41;99707.63;;;19.92
70664;BMP280;58237;57.996;56.290;2022-07-10T00:20:08;99710.63;;;19.90
70664;BMP280;58237;57.996;56.290;2022-07-10T00:22:34;99715.56;;;19.92
70664;BMP280;58237;57.996;56.290;2022-07-10T00:25:01;99710.69;;;19.94
70664;BMP280;58237;57.996;56.290;2022-07-10T00:27:26;99711.88;;;19.96
70664;BMP280;58237;57.996;56.290;2022-07-10T00:29:52;99709.63;;;19.98
70664;BMP280;58237;57.996;56.290;2022-07-10T00:32:17;99705.81;;;19.96
70664;BMP280;58237;57.996;56.290;2022-07-10T00:34:43;99716.09;;;20.01
70664;BMP280;58237;57.996;56.290;2022-07-10T00:37:09;99707.03;;;20.02
70664;BMP280;58237;57.996;56.290;2022-07-10T00:39:34;99707.81;;;20.03
70664;BMP280;58237;57.996;56.290;2022-07-10T00:42:08;99710.53;;;20.06
70664;BMP280;58237;57.996;56.290;2022-07-10T00:44:34;99698.00;;;20.03
70664;BMP280;58237;57.996;56.290;2022-07-10T00:46:59;99703.75;;;20.09
70664;BMP280;58237;57.996;56.290;2022-07-10T00:49:25;99708.34;;;20.12
70664;BMP280;58237;57.996;56.290;2022-07-10T00:51:51;99717.88;;;20.16
70664;BMP280;58237;57.996;56.290;2022-07-10T00:54:18;99713.03;;;20.18
70664;BMP280;58237;57.996;56.290;2022-07-10T00:56:43;99707.00;;;20.21
70664;BMP280;58237;57.996;56.290;2022-07-10T00:59:09;99715.00;;;20.25
70664;BMP280;58237;57.996;56.290;2022-07-10T01:01:35;99702.56;;;20.25
70664;BMP280;58237;57.996;56.290;2022-07-10T01:04:01;99707.91;;;20.32
70664;BMP280;58237;57.996;56.290;2022-07-10T01:06:27;99701.53;;;20.33
70664;BMP280;58237;57.996;56.290;2022-07-10T01:08:52;99710.72;;;20.39
70664;BMP280;58237;57.996;56.290;2022-07-10T01:11:18;99708.91;;;20.43
70664;BMP280;58237;57.996;56.290;2022-07-10T01:13:44;99725.59;;;20.47
70664;BMP280;58237;57.996;56.290;2022-07-10T01:16:11;99714.66;;;20.52
70664;BMP280;58237;57.996;56.290;2022-07-10T01:18:37;99715.16;;;20.58
70664;BMP280;58237;57.996;56.290;2022-07-10T01:21:02;99718.66;;;20.66
70664;BMP280;58237;57.996;56.290;2022-07-10T01:23:28;99718.03;;;20.72
70664;BMP280;58237;57.996;56.290;2022-07-10T01:25:54;99720.75;;;20.79
70664;BMP280;58237;57.996;56.290;2022-07-10T01:28:20;99726.53;;;20.85
70664;BMP280;58237;57.996;56.290;2022-07-10T01:30:47;99727.72;;;20.91
70664;BMP280;58237;57.996;56.290;2022-07-10T01:33:13;99714.19;;;20.96
70664;BMP280;58237;57.996;56.290;2022-07-10T01:35:39;99728.28;;;21.03
70664;BMP280;58237;57.996;56.290;2022-07-10T01:38:05;99724.25;;;21.13
70664;BMP280;58237;57.996;56.290;2022-07-10T01:40:31;99718.31;;;21.23
70664;BMP280;58237;57.996;56.290;2022-07-10T01:42:56;99716.59;;;21.38
70664;BMP280;58237;57.996;56.290;2022-07-10T01:45:22;99715.66;;;21.53
70664;BMP280;58237;57.996;56.290;2022-07-10T01:47:47;99715.03;;;21.66
70664;BMP280;58237;57.996;56.290;2022-07-10T01:50:13;99718.28;;;21.89
70664;BMP280;58237;57.996;56.290;2022-07-10T01:52:39;99723.81;;;22.14
70664;BMP280;58237;57.996;56.290;2022-07-10T01:55:05;99727.03;;;22.37
70664;BMP280;58237;57.996;56.290;2022-07-10T01:57:31;99719.59;;;22.57
70664;BMP280;58237;57.996;56.290;2022-07-10T01:59:57;99723.50;;;22.81
70664;BMP280;58237;57.996;56.290;2022-07-10T02:02:22;99724.78;;;23.04
70664;BMP280;58237;57.996;56.290;2022-07-10T02:04:48;99730.94;;;23.26
70664;BMP280;58237;57.996;56.290;2022-07-10T02:07:15;99730.25;;;23.47
70664;BMP280;58237;57.996;56.290;2022-07-10T02:09:42;99725.34;;;23.59
70664;BMP280;58237;57.996;56.290;2022-07-10T02:12:09;99734.13;;;23.81
70664;BMP280;58237;57.996;56.290;2022-07-10T02:14:36;99728.78;;;23.95
70664;BMP280;58237;57.996;56.290;2022-07-10T02:17:02;99733.75;;;24.03
70664;BMP280;58237;57.996;56.290;2022-07-10T02:19:28;99737.91;;;24.15
70664;BMP280;58237;57.996;56.290;2022-07-10T02:21:54;99734.88;;;24.24
70664;BMP280;58237;57.996;56.290;2022-07-10T02:24:19;99736.00;;;24.40
70664;BMP280;58237;57.996;56.290;2022-07-10T02:26:45;99730.66;;;24.51
70664;BMP280;58237;57.996;56.290;2022-07-10T02:29:10;99731.38;;;24.62
70664;BMP280;58237;57.996;56.290;2022-07-10T02:31:36;99740.91;;;24.73
70664;BMP280;58237;57.996;56.290;2022-07-10T02:34:02;99740.47;;;24.78
70664;BMP280;58237;57.996;56.290;2022-07-10T02:36:27;99742.38;;;24.85
70664;BMP280;58237;57.996;56.290;2022-07-10T02:38:53;99732.06;;;24.87
70664;BMP280;58237;57.996;56.290;2022-07-10T02:41:19;99740.47;;;24.86
70664;BMP280;58237;57.996;56.290;2022-07-10T02:43:44;99742.34;;;24.81
70664;BMP280;58237;57.996;56.290;2022-07-10T02:46:10;99746.56;;;24.75
70664;BMP280;58237;57.996;56.290;2022-07-10T02:48:36;99745.47;;;24.69
70664;BMP280;58237;57.996;56.290;2022-07-10T02:51:01;99742.81;;;24.62
70664;BMP280;58237;57.996;56.290;2022-07-10T02:53:27;99744.34;;;24.56
70664;BMP280;58237;57.996;56.290;2022-07-10T02:55:52;99751.19;;;24.57
70664;BMP280;58237;57.996;56.290;2022-07-10T02:58:18;99758.06;;;24.55
70664;BMP280;58237;57.996;56.290;2022-07-10T03:00:43;99753.09;;;24.50
70664;BMP280;58237;57.996;56.290;2022-07-10T03:03:09;99744.72;;;24.51
70664;BMP280;58237;57.996;56.290;2022-07-10T03:05:35;99756.50;;;24.50
70664;BMP280;58237;57.996;56.290;2022-07-10T03:08:00;99762.25;;;24.52
70664;BMP280;58237;57.996;56.290;2022-07-10T03:10:26;99760.72;;;24.55
70664;BMP280;58237;57.996;56.290;2022-07-10T03:12:51;99763.34;;;24.58
70664;BMP280;58237;57.996;56.290;2022-07-10T03:15:17;99763.75;;;24.60
70664;BMP280;58237;57.996;56.290;2022-07-10T03:17:43;99758.41;;;24.64
70664;BMP280;58237;57.996;56.290;2022-07-10T03:20:09;99761.81;;;24.71
70664;BMP280;58237;57.996;56.290;2022-07-10T03:22:35;99760.28;;;24.74
70664;BMP280;58237;57.996;56.290;2022-07-10T03:25:00;99761.78;;;24.82
70664;BMP280;58237;57.996;56.290;2022-07-10T03:27:26;99764.81;;;24.88
70664;BMP280;58237;57.996;56.290;2022-07-10T03:29:52;99765.16;;;24.97
70664;BMP280;58237;57.996;56.290;2022-07-10T03:32:17;99768.16;;;25.06
70664;BMP280;58237;57.996;56.290;2022-07-10T03:34:43;99771.56;;;25.13
70664;BMP280;58237;57.996;56.290;2022-07-10T03:37:09;99773.44;;;25.20
70664;BMP280;58237;57.996;56.290;2022-07-10T03:39:34;99766.56;;;25.26
70664;BMP280;58237;57.996;56.290;2022-07-10T03:42:00;99770.72;;;25.34
70664;BMP280;58237;57.996;56.290;2022-07-10T03:44:26;99763.47;;;25.38
70664;BMP280;58237;57.996;56.290;2022-07-10T03:46:51;99780.50;;;25.54
70664;BMP280;58237;57.996;56.290;2022-07-10T03:49:17;99779.28;;;25.66
70664;BMP280;58237;57.996;56.290;2022-07-10T03:51:43;99772.00;;;25.77
70664;BMP280;58237;57.996;56.290;2022-07-10T03:54:08;99771.53;;;25.86
70664;BMP280;58237;57.996;56.290;2022-07-10T03:56:34;99767.22;;;25.99
70664;BMP280;58237;57.996;56.290;2022-07-10T03:58:59;99764.47;;;26.09
70664;BMP280;58237;57.996;56.290;2022-07-10T04:01:25;99770.84;;;26.22
70664;BMP280;58237;57.996;56.290;2022-07-10T04:03:51;99771.50;;;26.33
70664;BMP280;58237;57.996;56.290;2022-07-10T04:06:16;99776.78;;;26.41
70664;BMP280;58237;57.996;56.290;2022-07-10T04:08:42;99769.44;;;26.48
70664;BMP280;58237;57.996;56.290;2022-07-10T04:11:07;99779.31;;;26.55
70664;BMP280;58237;57.996;56.290;2022-07-10T04:13:33;99771.22;;;26.62
70664;BMP280;58237;57.996;56.290;2022-07-10T04:15:58;99773.44;;;26.67
70664;BMP280;58237;57.996;56.290;2022-07-10T04:18:24;99773.78;;;26.76
70664;BMP280;58237;57.996;56.290;2022-07-10T04:20:49;99774.84;;;26.82
70664;BMP280;58237;57.996;56.290;2022-07-10T04:23:15;99778.59;;;26.88
70664;BMP280;58237;57.996;56.290;2022-07-10T04:25:41;99776.16;;;26.97
70664;BMP280;58237;57.996;56.290;2022-07-10T04:28:06;99766.88;;;27.05
70664;BMP280;58237;57.996;56.290;2022-07-10T04:30:32;99767.97;;;27.11
70664;BMP280;58237;57.996;56.290;2022-07-10T04:32:57;99763.31;;;27.15
70664;BMP280;58237;57.996;56.290;2022-07-10T04:35:23;99768.16;;;27.24
70664;BMP280;58237;57.996;56.290;2022-07-10T04:37:48;99768.50;;;27.29
70664;BMP280;58237;57.996;56.290;2022-07-10T04:40:14;99757.38;;;27.31
70664;BMP280;58237;57.996;56.290;2022-07-10T04:42:40;99761.00;;;27.44
70664;BMP280;58237;57.996;56.290;2022-07-10T04:45:05;99765.91;;;27.49
70664;BMP280;58237;57.996;56.290;2022-07-10T04:47:31;99764.69;;;27.53
70664;BMP280;58237;57.996;56.290;2022-07-10T04:49:57;99759.28;;;27.57
70664;BMP280;58237;57.996;56.290;2022-07-10T04:52:22;99760.00;;;27.61
70664;BMP280;58237;57.996;56.290;2022-07-10T04:54:48;99761.09;;;27.63
70664;BMP280;58237;57.996;56.290;2022-07-10T04:57:13;99766.41;;;27.67
70664;BMP280;58237;57.996;56.290;2022-07-10T04:59:39;99768.28;;;27.70
70664;BMP280;58237;57.996;56.290;2022-07-10T05:02:04;99760.53;;;27.75
70664;BMP280;58237;57.996;56.290;2022-07-10T05:04:30;99760.38;;;27.82
70664;BMP280;58237;57.996;56.290;2022-07-10T05:06:56;99762.63;;;27.87
70664;BMP280;58237;57.996;56.290;2022-07-10T05:09:21;99757.16;;;27.94
70664;BMP280;58237;57.996;56.290;2022-07-10T05:11:47;99771.59;;;28.00
70664;BMP280;58237;57.996;56.290;2022-07-10T05:14:12;99776.03;;;28.07
70664;BMP280;58237;57.996;56.290;2022-07-10T05:16:38;99775.59;;;28.12
70664;BMP280;58237;57.996;56.290;2022-07-10T05:19:04;99780.50;;;28.17
70664;BMP280;58237;57.996;56.290;2022-07-10T05:21:30;99781.94;;;28.22
70664;BMP280;58237;57.996;56.290;2022-07-10T05:23:55;99778.09;;;28.23
70664;BMP280;58237;57.996;56.290;2022-07-10T05:26:21;99776.16;;;28.23
70664;BMP280;58237;57.996;56.290;2022-07-10T05:28:46;99780.34;;;28.24
70664;BMP280;58237;57.996;56.290;2022-07-10T05:31:12;99775.44;;;28.19
70664;BMP280;58237;57.996;56.290;2022-07-10T05:33:37;99772.03;;;28.19
70664;BMP280;58237;57.996;56.290;2022-07-10T05:36:04;99778.84;;;28.23
70664;BMP280;58237;57.996;56.290;2022-07-10T05:38:29;99781.38;;;28.30
70664;BMP280;58237;57.996;56.290;2022-07-10T05:40:55;99778.56;;;28.37
70664;BMP280;58237;57.996;56.290;2022-07-10T05:43:20;99776.88;;;28.47
70664;BMP280;58237;57.996;56.290;2022-07-10T05:45:46;99777.81;;;28.56
70664;BMP280;58237;57.996;56.290;2022-07-10T05:48:12;99773.06;;;28.64
70664;BMP280;58237;57.996;56.290;2022-07-10T05:50:37;99768.34;;;28.71
70664;BMP280;58237;57.996;56.290;2022-07-10T05:53:03;99764.06;;;28.74
70664;BMP280;58237;57.996;56.290;2022-07-10T05:55:28;99773.97;;;28.77
70664;BMP280;58237;57.996;56.290;2022-07-10T05:57:54;99779.88;;;28.88
70664;BMP280;58237;57.996;56.290;2022-07-10T06:00:20;99772.06;;;28.94
70664;BMP280;58237;57.996;56.290;2022-07-10T06:02:45;99775.69;;;29.03
70664;BMP280;58237;57.996;56.290;2022-07-10T06:05:11;99778.72;;;29.05
70664;BMP280;58237;57.996;56.290;2022-07-10T06:07:37;99767.41;;;28.98
70664;BMP280;58237;57.996;56.290;2022-07-10T06:10:04;99781.56;;;28.98
70664;BMP280;58237;57.996;56.290;2022-07-10T06:12:30;99774.47;;;29.08
70664;BMP280;58237;57.996;56.290;2022-07-10T06:14:56;99773.72;;;29.23
70664;BMP280;58237;57.996;56.290;2022-07-10T06:17:22;99772.66;;;29.37
70664;BMP280;58237;57.996;56.290;2022-07-10T06:19:47;99768.91;;;29.50
70664;BMP280;58237;57.996;56.290;2022-07-10T06:22:13;99774.94;;;29.54
70664;BMP280;58237;57.996;56.290;2022-07-10T06:24:39;99780.53;;;29.44
70664;BMP280;58237;57.996;56.290;2022-07-10T06:27:05;99782.13;;;29.25
70664;BMP280;58237;57.996;56.290;2022-07-10T06:29:31;99777.75;;;29.15
70664;BMP280;58237;57.996;56.290;2022-07-10T06:31:56;99785.53;;;29.10
70664;BMP280;58237;57.996;56.290;2022-07-10T06:34:22;99780.50;;;28.96
70664;BMP280;58237;57.996;56.290;2022-07-10T06:36:48;99787.00;;;28.78
70664;BMP280;58237;57.996;56.290;2022-07-10T06:39:13;99794.19;;;28.62
70664;BMP280;58237;57.996;56.290;2022-07-10T06:41:39;99790.63;;;28.49
70664;BMP280;58237;57.996;56.290;2022-07-10T06:44:05;99788.09;;;28.42
70664;BMP280;58237;57.996;56.290;2022-07-10T06:46:31;99788.81;;;28.42
70664;BMP280;58237;57.996;56.290;2022-07-10T06:48:57;99792.00;;;28.57
70664;BMP280;58237;57.996;56.290;2022-07-10T06:51:23;99796.59;;;28.76
70664;BMP280;58237;57.996;56.290;2022-07-10T06:53:49;99789.09;;;28.87
70664;BMP280;58237;57.996;56.290;2022-07-10T06:56:14;99782.28;;;28.82
70664;BMP280;58237;57.996;56.290;2022-07-10T06:58:40;99784.84;;;28.90
70664;BMP280;58237;57.996;56.290;2022-07-10T07:01:06;99786.94;;;28.98
70664;BMP280;58237;57.996;56.290;2022-07-10T07:03:31;99791.78;;;29.03
70664;BMP280;58237;57.996;56.290;2022-07-10T07:05:57;99792.38;;;28.95
70664;BMP280;58237;57.996;56.290;2022-07-10T07:08:22;99796.19;;;28.77
70664;BMP280;58237;57.996;56.290;2022-07-10T07:10:48;99795.72;;;28.63
70664;BMP280;58237;57.996;56.290;2022-07-10T07:13:14;99789.38;;;28.53
70664;BMP280;58237;57.996;56.290;2022-07-10T07:15:39;99791.78;;;28.48
70664;BMP280;58237;57.996;56.290;2022-07-10T07:18:05;99795.34;;;28.41
70664;BMP280;58237;57.996;56.290;2022-07-10T07:20:30;99797.72;;;28.36
70664;BMP280;58237;57.996;56.290;2022-07-10T07:22:57;99800.97;;;28.27
70664;BMP280;58237;57.996;56.290;2022-07-10T07:25:23;99791.94;;;28.18
70664;BMP280;58237;57.996;56.290;2022-07-10T07:27:48;99795.94;;;28.10
70664;BMP280;58237;57.996;56.290;2022-07-10T07:30:15;99793.34;;;28.02
70664;BMP280;58237;57.996;56.290;2022-07-10T07:32:41;99797.66;;;27.96
70664;BMP280;58237;57.996;56.290;2022-07-10T07:35:08;99809.19;;;27.93
70664;BMP280;58237;57.996;56.290;2022-07-10T07:37:37;99804.66;;;27.90
70664;BMP280;58237;57.996;56.290;2022-07-10T07:40:05;99811.94;;;27.90
70664;BMP280;58237;57.996;56.290;2022-07-10T07:42:35;99800.84;;;27.91
70664;BMP280;58237;57.996;56.290;2022-07-10T07:45:01;99794.72;;;27.91
70664;BMP280;58237;57.996;56.290;2022-07-10T07:47:27;99799.28;;;27.90
70664;BMP280;58237;57.996;56.290;2022-07-10T07:49:52;99798.19;;;27.88
70664;BMP280;58237;57.996;56.290;2022-07-10T07:52:19;99798.25;;;27.84
70664;BMP280;58237;57.996;56.290;2022-07-10T07:54:44;99803.53;;;27.88
70664;BMP280;58237;57.996;56.290;2022-07-10T07:57:10;99806.28;;;28.08
70664;BMP280;58237;57.996;56.290;2022-07-10T07:59:35;99799.72;;;28.32
70664;BMP280;58237;57.996;56.290;2022-07-10T08:02:01;99799.13;;;28.44
70664;BMP280;58237;57.996;56.290;2022-07-10T08:04:26;99805.19;;;28.48
70664;BMP280;58237;57.996;56.290;2022-07-10T08:06:52;99800.66;;;28.45
70664;BMP280;58237;57.996;56.290;2022-07-10T08:09:18;99801.47;;;28.42
70664;BMP280;58237;57.996;56.290;2022-07-10T08:11:44;99795.41;;;28.38
70664;BMP280;58237;57.996;56.290;2022-07-10T08:14:09;99801.59;;;28.35
70664;BMP280;58237;57.996;56.290;2022-07-10T08:16:35;99799.78;;;28.28
70664;BMP280;58237;57.996;56.290;2022-07-10T08:19:01;99800.28;;;28.23
70664;BMP280;58237;57.996;56.290;2022-07-10T08:21:26;99799.66;;;28.16
70664;BMP280;58237;57.996;56.290;2022-07-10T08:23:52;99796.59;;;28.14
70664;BMP280;58237;57.996;56.290;2022-07-10T08:26:17;99799.75;;;28.09
70664;BMP280;58237;57.996;56.290;2022-07-10T08:28:43;99798.00;;;28.22
70664;BMP280;58237;57.996;56.290;2022-07-10T08:31:08;99800.00;;;28.37
70664;BMP280;58237;57.996;56.290;2022-07-10T08:33:34;99800.38;;;28.59
70664;BMP280;58237;57.996;56.290;2022-07-10T08:36:00;99802.44;;;28.71
70664;BMP280;58237;57.996;56.290;2022-07-10T08:38:26;99796.25;;;28.74
70664;BMP280;58237;57.996;56.290;2022-07-10T08:40:53;99799.69;;;28.74
70664;BMP280;58237;57.996;56.290;2022-07-10T08:43:19;99794.81;;;28.69
70664;BMP280;58237;57.996;56.290;2022-07-10T08:45:45;99791.50;;;28.62
70664;BMP280;58237;57.996;56.290;2022-07-10T08:48:12;99803.09;;;28.55
70664;BMP280;58237;57.996;56.290;2022-07-10T08:50:42;99805.84;;;28.52
70664;BMP280;58237;57.996;56.290;2022-07-10T08:53:15;99803.56;;;28.54
70664;BMP280;58237;57.996;56.290;2022-07-10T08:55:41;99798.38;;;28.63
70664;BMP280;58237;57.996;56.290;2022-07-10T08:58:12;99801.34;;;28.68
70664;BMP280;58237;57.996;56.290;2022-07-10T09:00:38;99802.50;;;28.67
70664;BMP280;58237;57.996;56.290;2022-07-10T09:03:03;99800.91;;;28.70
70664;BMP280;58237;57.996;56.290;2022-07-10T09:05:29;99799.00;;;28.70
70664;BMP280;58237;57.996;56.290;2022-07-10T09:07:55;99798.59;;;28.72
70664;BMP280;58237;57.996;56.290;2022-07-10T09:10:24;99801.28;;;28.72
70664;BMP280;58237;57.996;56.290;2022-07-10T09:15:22;99792.88;;;28.90
70664;BMP280;58237;57.996;56.290;2022-07-10T09:17:57;99788.50;;;29.15
70664;BMP280;58237;57.996;56.290;2022-07-10T09:20:32;99793.69;;;29.22
70664;BMP280;58237;57.996;56.290;2022-07-10T09:23:08;99795.28;;;29.20
70664;BMP280;58237;57.996;56.290;2022-07-10T09:25:34;99799.22;;;29.15
70664;BMP280;58237;57.996;56.290;2022-07-10T09:28:00;99787.50;;;29.25
70664;BMP280;58237;57.996;56.290;2022-07-10T09:30:32;99784.66;;;29.48
70664;BMP280;58237;57.996;56.290;2022-07-10T09:33:25;99780.53;;;29.76
70664;BMP280;58237;57.996;56.290;2022-07-10T09:38:22;99782.34;;;30.11
70664;BMP280;58237;57.996;56.290;2022-07-10T09:40:48;99788.03;;;30.26
70664;BMP280;58237;57.996;56.290;2022-07-10T09:43:13;99792.06;;;30.34
70664;BMP280;58237;57.996;56.290;2022-07-10T09:45:39;99783.19;;;30.37
70664;BMP280;58237;57.996;56.290;2022-07-10T09:48:05;99791.88;;;30.41
70664;BMP280;58237;57.996;56.290;2022-07-10T09:50:32;99790.06;;;30.38
70664;BMP280;58237;57.996;56.290;2022-07-10T09:53:00;99779.50;;;30.31
70664;BMP280;58237;57.996;56.290;2022-07-10T09:55:28;99787.44;;;30.34
70664;BMP280;58237;57.996;56.290;2022-07-10T09:58:04;99783.34;;;30.30
70664;BMP280;58237;57.996;56.290;2022-07-10T10:00:38;99786.19;;;30.10
70664;BMP280;58237;57.996;56.290;2022-07-10T10:03:05;99782.94;;;29.87
70664;BMP280;58237;57.996;56.290;2022-07-10T10:05:37;99792.63;;;29.68
70664;BMP280;58237;57.996;56.290;2022-07-10T10:08:17;99796.06;;;29.52
70664;BMP280;58237;57.996;56.290;2022-07-10T10:10:48;99789.50;;;29.37
70664;BMP280;58237;57.996;56.290;2022-07-10T10:13:19;99792.03;;;29.28
70664;BMP280;58237;57.996;56.290;2022-07-10T10:15:49;99778.78;;;29.21
70664;BMP280;58237;57.996;56.290;2022-07-10T10:18:23;99784.97;;;29.18
70664;BMP280;58237;57.996;56.290;2022-07-10T10:20:50;99783.88;;;29.16
70664;BMP280;58237;57.996;56.290;2022-07-10T10:23:18;99791.59;;;29.14
70664;BMP280;58237;57.996;56.290;2022-07-10T10:25:44;99790.47;;;29.11
70664;BMP280;58237;57.996;56.290;2022-07-10T10:28:10;99798.50;;;29.11
70664;BMP280;58237;57.996;56.290;2022-07-10T10:30:38;99788.97;;;29.10
70664;BMP280;58237;57.996;56.290;2022-07-10T10:35:55;99796.16;;;29.33
70664;BMP280;58237;57.996;56.290;2022-07-10T10:38:21;99793.97;;;29.44
70664;BMP280;58237;57.996;56.290;2022-07-10T10:40:47;99797.34;;;29.64
70664;BMP280;58237;57.996;56.290;2022-07-10T10:43:20;99799.06;;;29.87
70664;BMP280;58237;57.996;56.290;2022-07-10T10:45:46;99791.72;;;30.03
70664;BMP280;58237;57.996;56.290;2022-07-10T10:48:14;99799.00;;;30.19
70664;BMP280;58237;57.996;56.290;2022-07-10T10:53:16;99795.72;;;30.40
70664;BMP280;58237;57.996;56.290;2022-07-10T10:58:45;99795.00;;;30.52
70664;BMP280;58237;57.996;56.290;2022-07-10T11:06:52;99790.84;;;30.63
70664;BMP280;58237;57.996;56.290;2022-07-10T11:09:33;99791.59;;;30.64
70664;BMP280;58237;57.996;56.290;2022-07-10T11:12:00;99797.75;;;30.64
70664;BMP280;58237;57.996;56.290;2022-07-10T11:14:27;99805.38;;;30.66
70664;BMP280;58237;57.996;56.290;2022-07-10T11:16:54;99795.47;;;30.63
70664;BMP280;58237;57.996;56.290;2022-07-10T11:19:24;99797.28;;;30.53
70664;BMP280;58237;57.996;56.290;2022-07-10T11:21:58;99796.50;;;30.40
70664;BMP280;58237;57.996;56.290;2022-07-10T11:24:45;99800.66;;;30.29
70664;BMP280;58237;57.996;56.290;2022-07-10T11:27:50;99800.66;;;30.29
70664;BMP280;58237;57.996;56.290;2022-07-10T11:30:17;99791.31;;;30.05
70664;BMP280;58237;57.996;56.290;2022-07-10T11:32:43;99792.69;;;29.97
70664;BMP280;58237;57.996;56.290;2022-07-10T11:35:12;99795.53;;;29.90
70664;BMP280;58237;57.996;56.290;2022-07-10T11:37:51;99796.91;;;29.82
70664;BMP280;58237;57.996;56.290;2022-07-10T11:40:17;99800.59;;;29.71
70664;BMP280;58237;57.996;56.290;2022-07-10T11:42:55;99808.50;;;29.62
70664;BMP280;58237;57.996;56.290;2022-07-10T11:47:53;99806.88;;;29.49
70664;BMP280;58237;57.996;56.290;2022-07-10T11:50:19;99814.03;;;29.39
70664;BMP280;58237;57.996;56.290;2022-07-10T11:52:45;99818.69;;;29.35
70664;BMP280;58237;57.996;56.290;2022-07-10T11:55:19;99810.03;;;29.28
70664;BMP280;58237;57.996;56.290;2022-07-10T11:57:45;99797.47;;;29.25
70664;BMP280;58237;57.996;56.290;2022-07-10T12:00:25;99807.44;;;29.24
70664;BMP280;58237;57.996;56.290;2022-07-10T12:02:51;99803.25;;;29.23
70664;BMP280;58237;57.996;56.290;2022-07-10T12:05:34;99809.78;;;29.22
70664;BMP280;58237;57.996;56.290;2022-07-10T12:08:00;99816.34;;;29.21
70664;BMP280;58237;57.996;56.290;2022-07-10T12:10:30;99803.75;;;29.18
70664;BMP280;58237;57.996;56.290;2022-07-10T12:13:09;99806.44;;;29.18
70664;BMP280;58237;57.996;56.290;2022-07-10T12:15:36;99814.47;;;29.18
70664;BMP280;58237;57.996;56.290;2022-07-10T12:18:02;99806.78;;;29.20
70664;BMP280;58237;57.996;56.290;2022-07-10T12:20:27;99812.31;;;29.29
70664;BMP280;58237;57.996;56.290;2022-07-10T12:22:53;99818.94;;;29.41
70664;BMP280;58237;57.996;56.290;2022-07-10T12:25:20;99817.34;;;29.43
70664;BMP280;58237;57.996;56.290;2022-07-10T12:27:45;99812.00;;;29.43
70664;BMP280;58237;57.996;56.290;2022-07-10T12:30:11;99817.78;;;29.42
70664;BMP280;58237;57.996;56.290;2022-07-10T12:32:37;99809.81;;;29.38
70664;BMP280;58237;57.996;56.290;2022-07-10T12:35:03;99815.19;;;29.38
70664;BMP280;58237;57.996;56.290;2022-07-10T12:37:29;99811.78;;;29.34
70664;BMP280;58237;57.996;56.290;2022-07-10T12:39:54;99809.22;;;29.31
70664;BMP280;58237;57.996;56.290;2022-07-10T12:42:27;99803.59;;;29.25
70664;BMP280;58237;57.996;56.290;2022-07-10T12:44:53;99796.03;;;29.20
70664;BMP280;58237;57.996;56.290;2022-07-10T12:47:20;99801.91;;;29.15
70664;BMP280;58237;57.996;56.290;2022-07-10T12:49:53;99799.28;;;29.12
70664;BMP280;58237;57.996;56.290;2022-07-10T12:52:32;99800.13;;;29.09
70664;BMP280;58237;57.996;56.290;2022-07-10T12:55:09;99797.03;;;29.10
70664;BMP280;58237;57.996;56.290;2022-07-10T13:00:20;99807.19;;;29.19
70664;BMP280;58237;57.996;56.290;2022-07-10T13:02:48;99802.66;;;29.32
70664;BMP280;58237;57.996;56.290;2022-07-10T13:05:25;99807.63;;;29.49
70664;BMP280;58237;57.996;56.290;2022-07-10T13:07:51;99803.53;;;29.61
70664;BMP280;58237;57.996;56.290;2022-07-10T13:10:16;99807.47;;;29.72
70664;BMP280;58237;57.996;56.290;2022-07-10T13:12:42;99811.09;;;29.82
70664;BMP280;58237;57.996;56.290;2022-07-10T13:15:08;99811.41;;;29.84
70664;BMP280;58237;57.996;56.290;2022-07-10T13:17:33;99806.53;;;29.79
70664;BMP280;58237;57.996;56.290;2022-07-10T13:19:59;99796.31;;;29.74
70664;BMP280;58237;57.996;56.290;2022-07-10T13:22:26;99795.91;;;29.75
70664;BMP280;58237;57.996;56.290;2022-07-10T13:24:51;99792.69;;;29.81
70664;BMP280;58237;57.996;56.290;2022-07-10T13:27:17;99791.25;;;29.92
70664;BMP280;58237;57.996;56.290;2022-07-10T13:29:43;99797.22;;;30.00
70664;BMP280;58237;57.996;56.290;2022-07-10T13:32:08;99787.09;;;30.04
70664;BMP280;58237;57.996;56.290;2022-07-10T13:34:34;99796.16;;;30.10
70664;BMP280;58237;57.996;56.290;2022-07-10T13:37:00;99781.38;;;30.18
70664;BMP280;58237;57.996;56.290;2022-07-10T13:39:26;99779.66;;;30.24
70664;BMP280;58237;57.996;56.290;2022-07-10T13:41:52;99785.50;;;30.35
70664;BMP280;58237;57.996;56.290;2022-07-10T13:44:17;99776.19;;;30.39
70664;BMP280;58237;57.996;56.290;2022-07-10T13:46:43;99766.16;;;30.40
70664;BMP280;58237;57.996;56.290;2022-07-10T13:49:09;99768.44;;;30.41
70664;BMP280;58237;57.996;56.290;2022-07-10T13:51:34;99767.91;;;30.46
70664;BMP280;58237;57.996;56.290;2022-07-10T13:54:00;99772.75;;;30.51
70664;BMP280;58237;57.996;56.290;2022-07-10T13:56:26;99768.34;;;30.57
70664;BMP280;58237;57.996;56.290;2022-07-10T13:58:51;99764.06;;;30.60
70664;BMP280;58237;57.996;56.290;2022-07-10T14:01:17;99767.72;;;30.66
70664;BMP280;58237;57.996;56.290;2022-07-10T14:03:43;99766.88;;;30.69
70664;BMP280;58237;57.996;56.290;2022-07-10T14:06:08;99768.72;;;30.72
70664;BMP280;58237;57.996;56.290;2022-07-10T14:08:34;99763.53;;;30.78
70664;BMP280;58237;57.996;56.290;2022-07-10T14:11:00;99769.16;;;30.83
70664;BMP280;58237;57.996;56.290;2022-07-10T14:13:25;99771.97;;;30.92
70664;BMP280;58237;57.996;56.290;2022-07-10T14:15:51;99773.75;;;30.95
70664;BMP280;58237;57.996;56.290;2022-07-10T14:18:16;99771.22;;;30.92